Time;durP1;ratioP1;P1;durP2;ratioP2;P2;SDS_P1;SDS_P2;PMS_P1;PMS_P2;Temp;Humidity;BMP_temperature;BMP_pressure;BME280_temperature;BME280_humidity;BME280_pressure;Samples;Min_cycle;Max_cycle;Signal;HPM_P1;HPM_P2
2021/07/19 00:02:22;;;;;;;3.47;2.83;;;;;;;;;;5021462;28;20411;-88
2021/07/19 00:04:49;;;;;;;3.53;2.65;;;;;;;;;;5021379;28;20254;-87
2021/07/19 00:07:15;;;;;;;8.65;5.72;;;;;;;;;;5021097;28;20018;-88
2021/07/19 00:09:44;;;;;;;15.35;11.50;;;;;;;;;;5020994;28;20392;-87
2021/07/19 00:12:11;;;;;;;6.90;5.90;;;;;;;;;;5020916;28;20100;-85
2021/07/19 00:14:37;;;;;;;6.70;4.00;;;;;;;;;;5021082;28;20026;-89
2021/07/19 00:17:03;;;;;;;7.15;4.00;;;;;;;;;;5020827;28;20061;-84
2021/07/19 00:19:30;;;;;;;6.28;3.63;;;;;;;;;;5019863;28;20428;-95
2021/07/19 00:21:56;;;;;;;3.40;3.10;;;;;;;;;;5039242;28;20021;-88
2021/07/19 00:24:22;;;;;;;3.83;3.28;;;;;;;;;;5040209;28;20026;-81
2021/07/19 00:26:48;;;;;;;5.88;3.42;;;;;;;;;;5039934;28;20156;-85
2021/07/19 00:29:14;;;;;;;4.65;3.33;;;;;;;;;;5040162;28;20022;-83
2021/07/19 00:31:40;;;;;;;3.95;3.55;;;;;;;;;;5040421;28;20033;-88
2021/07/19 00:34:06;;;;;;;4.47;3.15;;;;;;;;;;5040428;28;20067;-84
2021/07/19 00:36:32;;;;;;;4.15;3.40;;;;;;;;;;5040259;28;20109;-84
2021/07/19 00:38:59;;;;;;;3.47;3.17;;;;;;;;;;5039260;28;20017;-84
2021/07/19 00:41:26;;;;;;;3.45;2.95;;;;;;;;;;5038954;28;20112;-83
2021/07/19 00:43:52;;;;;;;3.47;2.88;;;;;;;;;;5039850;28;20407;-84
2021/07/19 00:46:18;;;;;;;3.83;3.00;;;;;;;;;;5039936;28;20021;-82
2021/07/19 00:48:44;;;;;;;7.18;3.03;;;;;;;;;;5038312;28;20156;-84
2021/07/19 00:51:11;;;;;;;3.60;3.30;;;;;;;;;;5040035;28;20053;-84
2021/07/19 00:53:37;;;;;;;4.43;3.67;;;;;;;;;;5039893;28;20592;-85
2021/07/19 00:56:05;;;;;;;3.20;3.00;;;;;;;;;;5039914;28;20044;-86
2021/07/19 00:58:32;;;;;;;4.47;3.65;;;;;;;;;;5038398;28;20057;-86
2021/07/19 01:00:58;;;;;;;4.05;3.63;;;;;;;;;;5039809;28;20075;-84
2021/07/19 01:03:25;;;;;;;4.15;3.55;;;;;;;;;;5039514;28;20041;-84
2021/07/19 01:05:52;;;;;;;3.50;3.20;;;;;;;;;;5039775;28;20045;-87
2021/07/19 01:08:19;;;;;;;3.92;3.45;;;;;;;;;;5039504;28;20105;-86
2021/07/19 01:10:46;;;;;;;3.95;3.42;;;;;;;;;;5038246;28;20415;-84
2021/07/19 01:13:12;;;;;;;4.40;3.80;;;;;;;;;;5039466;28;20033;-82
2021/07/19 01:15:39;;;;;;;5.68;3.47;;;;;;;;;;5039306;28;20052;-82
2021/07/19 01:18:07;;;;;;;4.53;3.78;;;;;;;;;;5038762;28;20048;-82
2021/07/19 01:20:37;;;;;;;4.47;4.07;;;;;;;;;;5038918;28;20052;-81
2021/07/19 01:23:22;;;;;;;5.80;3.85;;;;;;;;;;5037745;28;20095;-84
2021/07/19 01:26:00;;;;;;;4.25;3.83;;;;;;;;;;5039265;28;20108;-82
2021/07/19 01:28:27;;;;;;;4.82;3.70;;;;;;;;;;5039046;28;20430;-86
2021/07/19 01:30:54;;;;;;;3.90;3.50;;;;;;;;;;5039002;28;20025;-82
2021/07/19 01:33:21;;;;;;;3.47;3.15;;;;;;;;;;5037850;28;20041;-83
2021/07/19 01:35:48;;;;;;;3.60;3.30;;;;;;;;;;5038009;28;20021;-83
2021/07/19 01:38:15;;;;;;;3.60;3.30;;;;;;;;;;5038681;28;20100;-83
2021/07/19 01:40:41;;;;;;;4.78;3.30;;;;;;;;;;5038863;28;20025;-83
2021/07/19 01:43:09;;;;;;;4.30;3.58;;;;;;;;;;5038829;28;20021;-83
2021/07/19 01:45:36;;;;;;;4.00;3.33;;;;;;;;;;5037584;28;20049;-82
2021/07/19 01:48:03;;;;;;;3.85;3.20;;;;;;;;;;5037306;28;20483;-84
2021/07/19 01:50:29;;;;;;;3.25;2.95;;;;;;;;;;5037704;28;20041;-80
2021/07/19 01:52:56;;;;;;;3.15;2.85;;;;;;;;;;5038282;28;20028;-79
2021/07/19 01:55:22;;;;;;;4.05;3.30;;;;;;;;;;5038415;28;20041;-80
2021/07/19 01:57:48;;;;;;;4.18;3.10;;;;;;;;;;5038076;28;20136;-80
2021/07/19 02:00:14;;;;;;;4.65;3.22;;;;;;;;;;5037800;28;20040;-79
2021/07/19 02:02:41;;;;;;;3.47;2.78;;;;;;;;;;5036303;28;20029;-80
2021/07/19 02:05:12;;;;;;;3.65;2.83;;;;;;;;;;5038317;28;20025;-84
2021/07/19 02:07:39;;;;;;;3.65;3.05;;;;;;;;;;5038547;28;20045;-82
2021/07/19 02:10:10;;;;;;;3.15;2.85;;;;;;;;;;5038352;28;20038;-83
2021/07/19 02:12:37;;;;;;;3.35;2.60;;;;;;;;;;5038152;28;20034;-82
2021/07/19 02:15:06;;;;;;;3.20;2.90;;;;;;;;;;5037940;28;20424;-82
2021/07/19 02:17:34;;;;;;;6.93;2.90;;;;;;;;;;5038168;28;20292;-84
2021/07/19 02:20:01;;;;;;;3.42;2.65;;;;;;;;;;5037970;28;20068;-83
2021/07/19 02:22:27;;;;;;;3.40;2.85;;;;;;;;;;5037125;28;20029;-83
2021/07/19 02:24:53;;;;;;;3.78;2.72;;;;;;;;;;5038146;28;20029;-83
2021/07/19 02:27:20;;;;;;;4.10;3.05;;;;;;;;;;5037789;28;20259;-82
2021/07/19 02:29:46;;;;;;;2.95;2.63;;;;;;;;;;5037560;28;20163;-82
2021/07/19 02:32:14;;;;;;;3.53;2.88;;;;;;;;;;5037997;28;20025;-82
2021/07/19 02:34:40;;;;;;;4.05;2.95;;;;;;;;;;5037761;28;20049;-81
2021/07/19 02:37:06;;;;;;;3.20;2.88;;;;;;;;;;5037446;28;20022;-81
2021/07/19 02:39:35;;;;;;;4.35;3.00;;;;;;;;;;5037862;28;20036;-83
2021/07/19 02:42:01;;;;;;;3.53;3.22;;;;;;;;;;5037645;28;20025;-83
2021/07/19 02:44:28;;;;;;;4.95;3.70;;;;;;;;;;5037826;28;20033;-83
2021/07/19 02:46:54;;;;;;;4.38;3.60;;;;;;;;;;5036195;28;20335;-83
2021/07/19 02:49:21;;;;;;;3.85;3.45;;;;;;;;;;5037214;28;20017;-82
2021/07/19 02:51:50;;;;;;;4.07;3.67;;;;;;;;;;5037657;28;20037;-82
2021/07/19 02:54:17;;;;;;;5.75;3.70;;;;;;;;;;5037644;28;20083;-83
2021/07/19 02:56:43;;;;;;;2.85;2.58;;;;;;;;;;5037532;28;20407;-83
2021/07/19 02:59:10;;;;;;;5.20;3.10;;;;;;;;;;5035722;28;20057;-83
2021/07/19 03:01:36;;;;;;;3.55;3.22;;;;;;;;;;5037369;28;20024;-83
2021/07/19 03:04:02;;;;;;;4.10;3.40;;;;;;;;;;5037253;28;20362;-83
2021/07/19 03:06:32;;;;;;;8.57;5.07;;;;;;;;;;5037328;28;20025;-83
2021/07/19 03:08:59;;;;;;;7.07;4.60;;;;;;;;;;5037060;28;20018;-82
2021/07/19 03:11:37;;;;;;;6.22;4.32;;;;;;;;;;5037349;28;20025;-82
2021/07/19 03:14:04;;;;;;;6.38;4.55;;;;;;;;;;5037042;28;20026;-82
2021/07/19 03:16:31;;;;;;;5.60;4.65;;;;;;;;;;5035940;28;20434;-82
2021/07/19 03:19:01;;;;;;;7.10;4.50;;;;;;;;;;5037111;28;20021;-82
2021/07/19 03:21:29;;;;;;;8.00;5.03;;;;;;;;;;5037087;28;20021;-82
2021/07/19 03:23:56;;;;;;;6.45;4.47;;;;;;;;;;5037283;28;20423;-82
2021/07/19 03:26:23;;;;;;;4.10;3.22;;;;;;;;;;5037053;28;20032;-81
2021/07/19 03:28:49;;;;;;;5.82;3.78;;;;;;;;;;5037071;28;20075;-82
2021/07/19 03:31:16;;;;;;;3.83;3.30;;;;;;;;;;5037006;28;20020;-82
2021/07/19 03:33:45;;;;;;;4.97;3.10;;;;;;;;;;5036943;28;20047;-81
2021/07/19 03:36:12;;;;;;;3.30;3.00;;;;;;;;;;5037162;28;20022;-81
2021/07/19 03:38:38;;;;;;;3.90;2.70;;;;;;;;;;5036876;28;20515;-83
2021/07/19 03:41:05;;;;;;;4.03;3.15;;;;;;;;;;5035903;28;20404;-82
2021/07/19 03:43:32;;;;;;;4.03;3.40;;;;;;;;;;5037001;28;20048;-82
2021/07/19 03:45:58;;;;;;;4.13;2.83;;;;;;;;;;5036820;28;20024;-82
2021/07/19 03:48:25;;;;;;;3.88;2.97;;;;;;;;;;5035636;28;20026;-83
2021/07/19 03:50:51;;;;;;;3.65;2.88;;;;;;;;;;5037003;28;20029;-84
2021/07/19 03:53:17;;;;;;;3.63;3.17;;;;;;;;;;5035675;28;20103;-84
2021/07/19 03:55:44;;;;;;;4.55;3.42;;;;;;;;;;5037028;28;20029;-84
2021/07/19 03:58:11;;;;;;;3.53;3.22;;;;;;;;;;5034950;28;20048;-82
2021/07/19 04:00:38;;;;;;;4.60;3.65;;;;;;;;;;5036623;28;20316;-82
2021/07/19 04:03:16;;;;;;;6.30;3.78;;;;;;;;;;5036634;28;20491;-83
2021/07/19 04:05:44;;;;;;;4.07;3.67;;;;;;;;;;5036817;28;20025;-82
2021/07/19 04:08:10;;;;;;;4.70;4.15;;;;;;;;;;5035637;28;20034;-82
2021/07/19 04:10:37;;;;;;;4.25;3.88;;;;;;;;;;5036781;28;20021;-82
2021/07/19 04:13:06;;;;;;;5.70;4.53;;;;;;;;;;5036528;28;20408;-82
2021/07/19 04:15:33;;;;;;;7.13;4.95;;;;;;;;;;5036450;28;20034;-82
2021/07/19 04:18:00;;;;;;;6.63;4.38;;;;;;;;;;5035332;28;20072;-84
2021/07/19 04:20:26;;;;;;;5.82;4.55;;;;;;;;;;5036905;28;20036;-82
2021/07/19 04:22:54;;;;;;;5.93;4.53;;;;;;;;;;5036492;28;20018;-83
2021/07/19 04:25:20;;;;;;;6.93;4.75;;;;;;;;;;5038982;28;20025;-84
2021/07/19 04:27:46;;;;;;;5.50;4.63;;;;;;;;;;5040568;28;20155;-83
2021/07/19 04:30:13;;;;;;;6.90;5.18;;;;;;;;;;5040135;28;20072;-83
2021/07/19 04:32:40;;;;;;;6.63;5.15;;;;;;;;;;5039995;28;20071;-83
2021/07/19 04:35:07;;;;;;;6.72;5.40;;;;;;;;;;5039083;28;20029;-83
2021/07/19 04:37:33;;;;;;;7.53;6.30;;;;;;;;;;5039927;28;20422;-83
2021/07/19 04:40:01;;;;;;;7.60;6.05;;;;;;;;;;5040010;28;20037;-82
2021/07/19 04:42:27;;;;;;;7.43;5.82;;;;;;;;;;5039855;28;20021;-82
2021/07/19 04:44:53;;;;;;;8.57;6.13;;;;;;;;;;5039739;28;20113;-82
2021/07/19 04:47:19;;;;;;;11.90;8.10;;;;;;;;;;5039638;28;20033;-84
2021/07/19 04:49:45;;;;;;;9.38;7.50;;;;;;;;;;5040030;28;20092;-84
2021/07/19 04:52:11;;;;;;;11.25;6.30;;;;;;;;;;5039897;28;20021;-83
2021/07/19 04:54:39;;;;;;;9.23;5.78;;;;;;;;;;5040127;28;20048;-83
2021/07/19 04:57:06;;;;;;;7.05;6.30;;;;;;;;;;5039423;28;20107;-83
2021/07/19 04:59:36;;;;;;;7.50;6.35;;;;;;;;;;5038564;28;20064;-83
2021/07/19 05:02:03;;;;;;;9.27;6.18;;;;;;;;;;5039349;28;20354;-82
2021/07/19 05:04:29;;;;;;;8.95;5.75;;;;;;;;;;5037959;28;20259;-83
2021/07/19 05:06:56;;;;;;;6.10;5.50;;;;;;;;;;5039292;28;20075;-82
2021/07/19 05:09:23;;;;;;;8.20;5.85;;;;;;;;;;5038214;28;20029;-82
2021/07/19 05:11:50;;;;;;;7.07;6.38;;;;;;;;;;5039257;28;20279;-82
2021/07/19 05:14:16;;;;;;;11.43;6.30;;;;;;;;;;5039160;28;20026;-82
2021/07/19 05:16:43;;;;;;;7.60;5.93;;;;;;;;;;5039176;28;20351;-82
2021/07/19 05:19:11;;;;;;;8.73;6.53;;;;;;;;;;5039188;28;20348;-82
2021/07/19 05:21:37;;;;;;;7.82;6.75;;;;;;;;;;5038884;28;20403;-82
2021/07/19 05:24:04;;;;;;;8.00;6.93;;;;;;;;;;5038659;28;20343;-80
2021/07/19 05:26:31;;;;;;;8.25;6.68;;;;;;;;;;5038806;28;20311;-80
2021/07/19 05:28:57;;;;;;;7.25;6.57;;;;;;;;;;5038881;28;20033;-81
2021/07/19 05:31:24;;;;;;;7.10;6.03;;;;;;;;;;5038526;28;20514;-81
2021/07/19 05:33:50;;;;;;;6.95;6.25;;;;;;;;;;5037417;28;20051;-83
2021/07/19 05:36:16;;;;;;;7.28;6.47;;;;;;;;;;5038833;28;20051;-81
2021/07/19 05:38:42;;;;;;;8.07;6.65;;;;;;;;;;5038564;28;20036;-82
2021/07/19 05:41:12;;;;;;;7.85;7.03;;;;;;;;;;5037595;28;20030;-81
2021/07/19 05:43:38;;;;;;;10.70;7.30;;;;;;;;;;5038603;28;20053;-80
2021/07/19 05:46:04;;;;;;;8.38;7.22;;;;;;;;;;5038457;28;20412;-79
2021/07/19 05:48:30;;;;;;;7.63;6.93;;;;;;;;;;5038423;28;20470;-81
2021/07/19 05:50:57;;;;;;;10.25;7.88;;;;;;;;;;5038362;28;20030;-81
2021/07/19 05:53:23;;;;;;;8.43;7.63;;;;;;;;;;5038535;28;20315;-80
2021/07/19 05:55:49;;;;;;;8.07;7.28;;;;;;;;;;5038265;28;20029;-82
2021/07/19 05:58:16;;;;;;;7.80;7.03;;;;;;;;;;5038584;28;20046;-84
2021/07/19 06:00:42;;;;;;;8.93;7.20;;;;;;;;;;5038451;28;20121;-83
2021/07/19 06:03:09;;;;;;;7.40;6.70;;;;;;;;;;5038356;28;20440;-83
2021/07/19 06:05:36;;;;;;;7.70;6.20;;;;;;;;;;5038614;28;20037;-83
2021/07/19 06:08:02;;;;;;;9.20;6.88;;;;;;;;;;5038182;28;20442;-81
2021/07/19 06:10:29;;;;;;;7.85;7.10;;;;;;;;;;5038027;28;20351;-83
2021/07/19 06:12:55;;;;;;;8.63;6.88;;;;;;;;;;5038176;28;20048;-82
2021/07/19 06:15:21;;;;;;;8.65;7.60;;;;;;;;;;5037894;28;20033;-83
2021/07/19 06:17:47;;;;;;;11.10;8.85;;;;;;;;;;5037752;28;20109;-81
2021/07/19 06:20:18;;;;;;;8.48;7.68;;;;;;;;;;5036956;28;20319;-82
2021/07/19 06:22:44;;;;;;;;;;;;;;;;;;5038314;28;20022;-81
2021/07/19 06:25:12;;;;;;;9.13;8.02;;;;;;;;;;5037617;28;19942;-82
2021/07/19 06:27:38;;;;;;;9.07;7.65;;;;;;;;;;5037978;28;20033;-81
2021/07/19 06:30:06;;;;;;;8.88;7.97;;;;;;;;;;5053255;28;20108;-82
2021/07/19 06:32:32;;;;;;;10.45;8.18;;;;;;;;;;5037750;28;20041;-80
2021/07/19 06:34:58;;;;;;;10.25;8.65;;;;;;;;;;5037856;28;20071;-83
2021/07/19 06:37:25;;;;;;;9.82;8.82;;;;;;;;;;5037752;28;20021;-84
2021/07/19 06:39:51;;;;;;;10.70;8.95;;;;;;;;;;5038009;28;20314;-83
2021/07/19 06:42:19;;;;;;;12.75;11.45;;;;;;;;;;5037938;28;20028;-81
2021/07/19 06:44:47;;;;;;;13.10;9.50;;;;;;;;;;5037609;28;20022;-83
2021/07/19 06:47:13;;;;;;;13.05;11.18;;;;;;;;;;5037071;28;20446;-82
2021/07/19 06:49:39;;;;;;;14.65;10.27;;;;;;;;;;5037286;28;20075;-81
2021/07/19 06:52:05;;;;;;;11.38;10.18;;;;;;;;;;5035755;28;20033;-81
2021/07/19 06:54:31;;;;;;;11.68;10.40;;;;;;;;;;5037402;28;20025;-83
2021/07/19 06:56:57;;;;;;;13.07;9.30;;;;;;;;;;5035861;28;20034;-82
2021/07/19 06:59:23;;;;;;;12.80;9.82;;;;;;;;;;5035395;28;20521;-82
2021/07/19 07:01:49;;;;;;;11.80;9.45;;;;;;;;;;5036170;28;20041;-81
2021/07/19 07:04:15;;;;;;;12.50;9.88;;;;;;;;;;5037054;28;20021;-83
2021/07/19 07:06:41;;;;;;;20.23;15.40;;;;;;;;;;5036161;28;20378;-81
2021/07/19 07:09:07;;;;;;;28.17;23.20;;;;;;;;;;5037020;28;20030;-80
2021/07/19 07:11:33;;;;;;;13.45;11.77;;;;;;;;;;5036038;28;20029;-81
2021/07/19 07:14:00;;;;;;;11.38;10.27;;;;;;;;;;5036474;28;20339;-81
2021/07/19 07:16:26;;;;;;;22.00;11.55;;;;;;;;;;5036924;28;20095;-81
2021/07/19 07:18:52;;;;;;;20.77;10.20;;;;;;;;;;5036263;28;20427;-81
2021/07/19 07:21:18;;;;;;;15.98;10.85;;;;;;;;;;5035963;28;20028;-81
2021/07/19 07:23:44;;;;;;;12.80;10.07;;;;;;;;;;5036443;28;20430;-82
2021/07/19 07:26:10;;;;;;;11.70;10.40;;;;;;;;;;5036832;28;20088;-81
2021/07/19 07:28:36;;;;;;;13.60;10.98;;;;;;;;;;5037280;28;20037;-81
2021/07/19 07:31:02;;;;;;;11.57;10.07;;;;;;;;;;5036872;28;20425;-81
2021/07/19 07:33:28;;;;;;;24.77;11.48;;;;;;;;;;5036737;28;20056;-81
2021/07/19 07:35:54;;;;;;;15.07;11.77;;;;;;;;;;5036807;28;20053;-81
2021/07/19 07:38:20;;;;;;;10.38;9.27;;;;;;;;;;5035644;28;20041;-81
2021/07/19 07:40:48;;;;;;;11.77;10.57;;;;;;;;;;5036918;28;20033;-81
2021/07/19 07:43:15;;;;;;;10.30;9.30;;;;;;;;;;5036965;28;20018;-81
2021/07/19 08:02:47;;;;;;;11.98;10.75;;;;;;;;;;5135718;27;20375;-83
2021/07/19 08:05:14;;;;;;;13.10;11.77;;;;;;;;;;5135105;28;20031;-83
2021/07/19 08:07:40;;;;;;;12.27;10.45;;;;;;;;;;5117059;28;20106;-83
2021/07/19 08:10:07;;;;;;;11.57;10.43;;;;;;;;;;5117214;28;20308;-84
2021/07/19 08:12:33;;;;;;;11.82;10.60;;;;;;;;;;5135376;28;20028;-82
2021/07/19 08:15:03;;;;;;;12.52;10.02;;;;;;;;;;5135171;28;20024;-82
2021/07/19 08:17:29;;;;;;;12.27;10.45;;;;;;;;;;5116527;28;20031;-83
2021/07/19 08:19:57;;;;;;;11.95;10.45;;;;;;;;;;5135179;28;20407;-82
2021/07/19 08:22:24;;;;;;;11.52;10.43;;;;;;;;;;5135169;28;20103;-82
2021/07/19 08:24:50;;;;;;;11.18;9.65;;;;;;;;;;5135083;28;20015;-83
2021/07/19 08:27:16;;;;;;;17.65;13.93;;;;;;;;;;5134933;28;20451;-83
2021/07/19 08:29:42;;;;;;;10.75;9.65;;;;;;;;;;5134809;28;20023;-83
2021/07/19 08:32:09;;;;;;;11.82;10.15;;;;;;;;;;5134636;28;20030;-82
2021/07/19 08:34:35;;;;;;;12.30;10.80;;;;;;;;;;5133638;27;20107;-82
2021/07/19 08:37:01;;;;;;;12.85;9.07;;;;;;;;;;5134472;28;20019;-82
2021/07/19 08:39:28;;;;;;;11.95;10.75;;;;;;;;;;5134654;28;20432;-82
2021/07/19 08:41:54;;;;;;;12.02;9.90;;;;;;;;;;5134968;28;20106;-84
2021/07/19 08:44:20;;;;;;;14.90;9.88;;;;;;;;;;5134811;28;20099;-82
2021/07/19 08:46:47;;;;;;;13.02;10.85;;;;;;;;;;5134644;28;20069;-82
2021/07/19 08:49:14;;;;;;;11.23;9.85;;;;;;;;;;5134371;28;20094;-82
2021/07/19 08:51:41;;;;;;;13.07;9.80;;;;;;;;;;5134315;28;20320;-82
2021/07/19 08:54:09;;;;;;;13.98;11.55;;;;;;;;;;5106805;28;20060;-82
2021/07/19 08:56:35;;;;;;;17.58;10.70;;;;;;;;;;5113874;28;20020;-82
2021/07/19 08:59:02;;;;;;;12.75;10.73;;;;;;;;;;5113782;28;20024;-82
2021/07/19 09:01:32;;;;;;;12.80;10.05;;;;;;;;;;5113251;28;20052;-83
2021/07/19 09:03:58;;;;;;;13.02;10.25;;;;;;;;;;5099754;28;20024;-83
2021/07/19 09:06:25;;;;;;;15.20;11.10;;;;;;;;;;5099922;28;20031;-83
2021/07/19 09:08:51;;;;;;;12.52;10.32;;;;;;;;;;5100042;28;20031;-81
2021/07/19 09:11:18;;;;;;;13.00;10.32;;;;;;;;;;5099972;28;20027;-82
2021/07/19 09:13:57;;;;;;;12.02;10.43;;;;;;;;;;5099762;28;20028;-82
2021/07/19 09:16:24;;;;;;;12.75;11.13;;;;;;;;;;5099798;28;20348;-82
2021/07/19 09:19:06;;;;;;;15.75;11.65;;;;;;;;;;5099818;28;20024;-83
2021/07/19 09:21:33;;;;;;;15.20;11.77;;;;;;;;;;5099880;28;20028;-83
2021/07/19 09:24:04;;;;;;;111.18;19.23;;;;;;;;;;5099783;28;20020;-83
2021/07/19 09:26:34;;;;;;;13.25;11.25;;;;;;;;;;5099625;28;20355;-83
2021/07/19 09:29:00;;;;;;;18.40;11.82;;;;;;;;;;5099681;28;20050;-83
2021/07/19 09:31:38;;;;;;;12.50;10.98;;;;;;;;;;5099682;28;20036;-84
2021/07/19 09:34:11;;;;;;;16.73;11.27;;;;;;;;;;5099767;28;20054;-83
2021/07/19 09:36:37;;;;;;;15.38;12.07;;;;;;;;;;5099462;28;20125;-83
2021/07/19 09:39:12;;;;;;;14.77;11.27;;;;;;;;;;5099700;28;20390;-82
2021/07/19 09:41:38;;;;;;;12.27;10.85;;;;;;;;;;5099400;28;20052;-83
2021/07/19 09:44:07;;;;;;;14.82;11.13;;;;;;;;;;5081553;28;20062;-83
2021/07/19 09:46:34;;;;;;;13.05;11.40;;;;;;;;;;5098774;28;20359;-82
2021/07/19 09:49:00;;;;;;;13.90;11.90;;;;;;;;;;5099222;28;20401;-82
2021/07/19 09:51:36;;;;;;;20.27;13.70;;;;;;;;;;5099129;28;20035;-82
2021/07/19 09:54:13;;;;;;;15.65;12.20;;;;;;;;;;5080906;28;20024;-82
2021/07/19 09:56:40;;;;;;;12.90;11.32;;;;;;;;;;5099371;28;20016;-82
2021/07/19 09:59:07;;;;;;;16.83;12.10;;;;;;;;;;5081269;28;20066;-83
2021/07/19 10:01:35;;;;;;;15.43;12.73;;;;;;;;;;5080950;28;20322;-82
2021/07/19 10:04:07;;;;;;;14.32;12.02;;;;;;;;;;5098964;28;20024;-83
2021/07/19 10:06:33;;;;;;;20.30;14.95;;;;;;;;;;5099180;28;20030;-83
2021/07/19 10:09:00;;;;;;;18.75;15.27;;;;;;;;;;5099160;28;20028;-83
2021/07/19 10:11:34;;;;;;;20.15;14.07;;;;;;;;;;5080855;28;20051;-83
2021/07/19 10:14:01;;;;;;;16.77;13.50;;;;;;;;;;5080063;28;20020;-84
2021/07/19 10:16:28;;;;;;;18.67;13.75;;;;;;;;;;5098789;28;20024;-83
2021/07/19 10:18:55;;;;;;;25.98;14.45;;;;;;;;;;5080318;28;20073;-83
2021/07/19 10:21:22;;;;;;;19.13;14.65;;;;;;;;;;5080567;28;20023;-82
2021/07/19 10:23:48;;;;;;;17.75;13.05;;;;;;;;;;5098472;28;20317;-81
2021/07/19 10:26:14;;;;;;;16.45;13.50;;;;;;;;;;5098670;28;20028;-82
2021/07/19 10:28:40;;;;;;;19.50;14.57;;;;;;;;;;5098255;28;20020;-80
2021/07/19 10:31:08;;;;;;;17.63;14.25;;;;;;;;;;5080361;28;20032;-81
2021/07/19 10:33:36;;;;;;;16.23;13.77;;;;;;;;;;5080172;28;20043;-82
2021/07/19 10:36:04;;;;;;;16.45;13.80;;;;;;;;;;5098398;28;20083;-82
2021/07/19 10:38:30;;;;;;;16.35;14.65;;;;;;;;;;5098443;28;20022;-82
2021/07/19 10:40:57;;;;;;;14.02;12.45;;;;;;;;;;5098384;28;20024;-82
2021/07/19 10:43:25;;;;;;;16.13;12.63;;;;;;;;;;5098338;28;20346;-81
2021/07/19 10:45:58;;;;;;;16.50;12.55;;;;;;;;;;5098190;28;20035;-82
2021/07/19 10:48:25;;;;;;;14.02;12.50;;;;;;;;;;5098043;28;20024;-82
2021/07/19 10:50:52;;;;;;;14.95;12.57;;;;;;;;;;5097999;28;20115;-82
2021/07/19 10:53:19;;;;;;;15.80;12.45;;;;;;;;;;5097999;28;20023;-81
2021/07/19 10:55:46;;;;;;;17.40;12.60;;;;;;;;;;5098117;28;20420;-82
2021/07/19 10:58:17;;;;;;;13.73;11.45;;;;;;;;;;5097640;28;20048;-82
2021/07/19 11:00:47;;;;;;;13.75;12.25;;;;;;;;;;5079570;28;20127;-82
2021/07/19 11:03:15;;;;;;;14.40;12.90;;;;;;;;;;5097820;28;20031;-82
2021/07/19 11:05:43;;;;;;;18.05;12.13;;;;;;;;;;5097875;28;20256;-82
2021/07/19 11:08:25;;;;;;;14.57;10.57;;;;;;;;;;5079633;28;20024;-82
2021/07/19 11:10:55;;;;;;;12.27;10.80;;;;;;;;;;5097512;28;20024;-81
2021/07/19 11:13:32;;;;;;;12.60;10.32;;;;;;;;;;5097568;28;20073;-81
2021/07/19 11:15:59;;;;;;;14.18;11.52;;;;;;;;;;5097597;28;20020;-81
2021/07/19 11:18:27;;;;;;;12.73;10.55;;;;;;;;;;5097491;28;20020;-82
2021/07/19 11:20:55;;;;;;;12.35;10.20;;;;;;;;;;5097443;28;20092;-81
2021/07/19 11:23:32;;;;;;;11.10;9.88;;;;;;;;;;5079626;28;20024;-82
2021/07/19 11:25:59;;;;;;;15.10;11.02;;;;;;;;;;5097150;28;20103;-81
2021/07/19 11:28:27;;;;;;;11.68;10.48;;;;;;;;;;5097369;28;20111;-82
2021/07/19 11:31:03;;;;;;;13.90;11.90;;;;;;;;;;5097366;28;20298;-82
2021/07/19 11:33:33;;;;;;;11.32;9.73;;;;;;;;;;5097413;28;20016;-82
2021/07/19 11:35:59;;;;;;;10.63;9.60;;;;;;;;;;5097249;28;20337;-82
2021/07/19 11:38:35;;;;;;;12.90;10.32;;;;;;;;;;5097014;28;20038;-82
2021/07/19 11:41:12;;;;;;;10.77;9.07;;;;;;;;;;5097211;28;20035;-82
2021/07/19 11:43:39;;;;;;;14.05;9.70;;;;;;;;;;5078917;28;20044;-82
2021/07/19 11:46:05;;;;;;;11.18;8.82;;;;;;;;;;5097409;28;20028;-82
2021/07/19 11:48:31;;;;;;;10.65;9.48;;;;;;;;;;5079076;28;20036;-82
2021/07/19 11:50:58;;;;;;;10.35;9.23;;;;;;;;;;5096875;28;20115;-82
2021/07/19 11:53:24;;;;;;;13.77;9.80;;;;;;;;;;5096965;28;20116;-83
2021/07/19 11:55:51;;;;;;;16.67;9.68;;;;;;;;;;5097188;28;20023;-82
2021/07/19 11:58:17;;;;;;;11.52;10.07;;;;;;;;;;5096921;28;20031;-82
2021/07/19 12:00:45;;;;;;;18.10;11.52;;;;;;;;;;5078927;28;20055;-82
2021/07/19 12:03:17;;;;;;;20.23;10.05;;;;;;;;;;5097167;28;20031;-82
2021/07/19 12:05:50;;;;;;;24.00;11.10;;;;;;;;;;5097076;28;20035;-82
2021/07/19 12:08:17;;;;;;;18.65;11.32;;;;;;;;;;5097040;28;20028;-82
2021/07/19 12:10:43;;;;;;;12.00;9.32;;;;;;;;;;5078556;28;20032;-82
2021/07/19 12:13:16;;;;;;;12.05;9.45;;;;;;;;;;5097042;28;20047;-82
2021/07/19 12:15:53;;;;;;;11.88;9.65;;;;;;;;;;5078900;28;20097;-82
2021/07/19 12:18:29;;;;;;;15.80;10.18;;;;;;;;;;5096822;28;20137;-82
2021/07/19 12:20:56;;;;;;;12.80;9.60;;;;;;;;;;5096765;28;20035;-81
2021/07/19 12:23:22;;;;;;;13.10;11.55;;;;;;;;;;5078466;28;20127;-82
2021/07/19 12:25:56;;;;;;;44.78;40.47;;;;;;;;;;5096826;28;20103;-81
2021/07/19 12:28:22;;;;;;;27.88;25.13;;;;;;;;;;5096848;28;20421;-81
2021/07/19 12:30:48;;;;;;;17.27;13.77;;;;;;;;;;5096909;28;20073;-82
2021/07/19 12:33:22;;;;;;;10.63;9.10;;;;;;;;;;5096755;28;20027;-82
2021/07/19 12:35:51;;;;;;;13.00;10.18;;;;;;;;;;5096836;28;20294;-82
2021/07/19 12:38:18;;;;;;;9.50;8.07;;;;;;;;;;5099060;28;20027;-82
2021/07/19 12:40:44;;;;;;;8.98;8.02;;;;;;;;;;5100469;28;20024;-81
2021/07/19 12:43:10;;;;;;;63.97;18.13;;;;;;;;;;5100594;28;20050;-82
2021/07/19 12:45:39;;;;;;;25.02;11.07;;;;;;;;;;5100417;28;20036;-81
2021/07/19 12:48:05;;;;;;;15.15;9.77;;;;;;;;;;5100641;28;20028;-81
2021/07/19 12:50:31;;;;;;;43.75;14.50;;;;;;;;;;5100312;28;20042;-82
2021/07/19 12:52:57;;;;;;;23.63;11.10;;;;;;;;;;5082313;28;20031;-82
2021/07/19 12:55:25;;;;;;;9.90;8.48;;;;;;;;;;5100210;28;20449;-82
2021/07/19 12:57:52;;;;;;;43.65;14.23;;;;;;;;;;5082221;28;20110;-82
2021/07/19 13:00:19;;;;;;;24.48;10.85;;;;;;;;;;5099924;28;20031;-82
2021/07/19 13:02:45;;;;;;;11.75;8.60;;;;;;;;;;5082201;28;20039;-82
2021/07/19 13:05:16;;;;;;;10.70;7.88;;;;;;;;;;5100073;28;20026;-81
2021/07/19 13:07:42;;;;;;;34.67;16.73;;;;;;;;;;5099886;28;20398;-81
2021/07/19 13:10:16;;;;;;;10.82;8.00;;;;;;;;;;5099864;28;20398;-81
2021/07/19 13:12:49;;;;;;;12.25;8.30;;;;;;;;;;5081894;28;20406;-81
2021/07/19 13:15:17;;;;;;;9.23;8.32;;;;;;;;;;5099852;28;20024;-81
2021/07/19 13:17:43;;;;;;;35.00;17.92;;;;;;;;;;5099997;28;20027;-82
2021/07/19 13:20:13;;;;;;;23.20;15.43;;;;;;;;;;5099769;28;20044;-82
2021/07/19 13:22:41;;;;;;;9.32;8.43;;;;;;;;;;5081415;28;20055;-81
2021/07/19 13:25:20;;;;;;;22.70;16.90;;;;;;;;;;5081677;28;20115;-82
2021/07/19 13:27:47;;;;;;;35.53;20.80;;;;;;;;;;5099645;28;20028;-82
2021/07/19 13:30:14;;;;;;;57.50;35.85;;;;;;;;;;5081360;28;20028;-81
2021/07/19 13:32:41;;;;;;;59.63;33.38;;;;;;;;;;5099195;28;20035;-81
2021/07/19 13:35:11;;;;;;;9.80;8.70;;;;;;;;;;5099438;28;20024;-82
2021/07/19 13:37:40;;;;;;;25.48;15.25;;;;;;;;;;5081416;28;20425;-81
2021/07/19 13:40:07;;;;;;;9.30;7.22;;;;;;;;;;5099375;28;20028;-82
2021/07/19 13:42:34;;;;;;;14.27;8.52;;;;;;;;;;5099295;28;20020;-81
2021/07/19 13:45:00;;;;;;;16.73;12.60;;;;;;;;;;5081293;28;20017;-81
2021/07/19 13:47:26;;;;;;;20.55;13.25;;;;;;;;;;5099233;28;20024;-81
2021/07/19 13:49:53;;;;;;;8.82;7.63;;;;;;;;;;5099078;28;20467;-81
2021/07/19 13:52:20;;;;;;;10.13;7.45;;;;;;;;;;5098895;28;20063;-81
2021/07/19 13:54:46;;;;;;;8.75;7.10;;;;;;;;;;5099026;28;20039;-82
2021/07/19 13:57:12;;;;;;;12.63;10.18;;;;;;;;;;5098784;28;20103;-81
2021/07/19 13:59:38;;;;;;;10.77;8.02;;;;;;;;;;5099253;28;20313;-82
2021/07/19 14:02:05;;;;;;;11.82;8.15;;;;;;;;;;5098875;28;20517;-81
2021/07/19 14:04:31;;;;;;;7.78;6.90;;;;;;;;;;5099207;28;20032;-82
2021/07/19 14:06:57;;;;;;;7.68;6.80;;;;;;;;;;5080885;28;20038;-81
2021/07/19 14:09:23;;;;;;;9.93;7.20;;;;;;;;;;5098534;28;20016;-81
2021/07/19 14:11:50;;;;;;;8.18;7.18;;;;;;;;;;5098688;28;20028;-81
2021/07/19 14:14:16;;;;;;;30.52;9.00;;;;;;;;;;5098659;28;20386;-81
2021/07/19 14:16:42;;;;;;;37.83;8.10;;;;;;;;;;5098895;28;20028;-82
2021/07/19 14:19:09;;;;;;;53.10;8.75;;;;;;;;;;5098673;28;20027;-81
2021/07/19 14:21:35;;;;;;;17.27;7.13;;;;;;;;;;5080597;28;20032;-81
2021/07/19 14:24:02;;;;;;;26.35;9.48;;;;;;;;;;5098530;28;20027;-82
2021/07/19 14:26:34;;;;;;;31.80;7.68;;;;;;;;;;5098424;28;20024;-82
2021/07/19 14:29:01;;;;;;;10.43;7.05;;;;;;;;;;5098678;28;20024;-81
2021/07/19 14:31:29;;;;;;;10.05;6.40;;;;;;;;;;5098400;28;20070;-81
2021/07/19 14:33:55;;;;;;;39.85;9.18;;;;;;;;;;5098423;28;20363;-81
2021/07/19 14:36:22;;;;;;;31.80;8.35;;;;;;;;;;5080258;28;20118;-81
2021/07/19 14:38:48;;;;;;;11.73;7.60;;;;;;;;;;5098217;28;20028;-81
2021/07/19 14:41:14;;;;;;;10.98;7.15;;;;;;;;;;5098196;28;20070;-81
2021/07/19 14:43:41;;;;;;;9.57;7.25;;;;;;;;;;5098315;28;20031;-81
2021/07/19 14:46:08;;;;;;;12.35;8.90;;;;;;;;;;5098249;28;20032;-81
2021/07/19 14:48:34;;;;;;;11.02;8.23;;;;;;;;;;5080098;28;20034;-82
2021/07/19 14:51:00;;;;;;;12.73;7.75;;;;;;;;;;5097654;28;20027;-81